sensor_id;sensor_type;location;lat;lon;timestamp;temperature;humidity
44767;DHT22;30487;48.716;9.272;2022-12-18T00:00:46;-5.70;99.90
44767;DHT22;30487;48.716;9.272;2022-12-18T00:03:16;-5.70;99.90
44767;DHT22;30487;48.716;9.272;2022-12-18T00:05:48;-5.70;99.90
44767;DHT22;30487;48.716;9.272;2022-12-18T00:08:14;-5.70;99.90
44767;DHT22;30487;48.716;9.272;2022-12-18T00:10:40;-5.70;99.90
44767;DHT22;30487;48.716;9.272;2022-12-18T00:13:06;-5.70;99.90
44767;DHT22;30487;48.716;9.272;2022-12-18T00:15:36;-5.60;99.90
44767;DHT22;30487;48.716;9.272;2022-12-18T00:18:02;-5.70;99.90
44767;DHT22;30487;48.716;9.272;2022-12-18T00:20:28;-5.80;99.90
44767;DHT22;30487;48.716;9.272;2022-12-18T00:22:53;-5.80;99.90
44767;DHT22;30487;48.716;9.272;2022-12-18T00:25:19;-5.80;99.90
44767;DHT22;30487;48.716;9.272;2022-12-18T00:27:45;-5.90;99.90
44767;DHT22;30487;48.716;9.272;2022-12-18T00:30:11;-5.90;99.90
44767;DHT22;30487;48.716;9.272;2022-12-18T00:32:37;-5.90;99.90
44767;DHT22;30487;48.716;9.272;2022-12-18T00:35:03;-5.90;99.90
44767;DHT22;30487;48.716;9.272;2022-12-18T00:37:29;-5.80;99.90
44767;DHT22;30487;48.716;9.272;2022-12-18T00:39:54;-5.90;99.90
44767;DHT22;30487;48.716;9.272;2022-12-18T00:42:20;-5.90;99.90
44767;DHT22;30487;48.716;9.272;2022-12-18T00:45:04;-5.90;99.90
44767;DHT22;30487;48.716;9.272;2022-12-18T00:47:30;-5.90;99.90
44767;DHT22;30487;48.716;9.272;2022-12-18T00:49:55;-5.90;99.90
44767;DHT22;30487;48.716;9.272;2022-12-18T00:52:21;-5.90;99.90
44767;DHT22;30487;48.716;9.272;2022-12-18T00:54:46;-5.90;99.90
44767;DHT22;30487;48.716;9.272;2022-12-18T00:57:12;-5.90;99.90
44767;DHT22;30487;48.716;9.272;2022-12-18T00:59:37;-5.90;99.90
44767;DHT22;30487;48.716;9.272;2022-12-18T01:02:03;-5.90;99.90
44767;DHT22;30487;48.716;9.272;2022-12-18T01:04:31;-5.90;99.90
44767;DHT22;30487;48.716;9.272;2022-12-18T01:06:57;-5.90;99.90
44767;DHT22;30487;48.716;9.272;2022-12-18T01:09:23;-5.80;99.90
44767;DHT22;30487;48.716;9.272;2022-12-18T01:11:48;-5.80;99.90
44767;DHT22;30487;48.716;9.272;2022-12-18T01:14:14;-5.80;99.90
44767;DHT22;30487;48.716;9.272;2022-12-18T01:16:40;-5.90;99.90
44767;DHT22;30487;48.716;9.272;2022-12-18T01:19:05;-5.90;99.90
44767;DHT22;30487;48.716;9.272;2022-12-18T01:21:31;-5.90;99.90
44767;DHT22;30487;48.716;9.272;2022-12-18T01:23:57;-5.90;99.90
44767;DHT22;30487;48.716;9.272;2022-12-18T01:26:23;-6.00;99.90
44767;DHT22;30487;48.716;9.272;2022-12-18T01:28:49;-6.00;99.90
44767;DHT22;30487;48.716;9.272;2022-12-18T01:33:42;-6.10;99.90
44767;DHT22;30487;48.716;9.272;2022-12-18T01:36:14;-6.10;99.90
44767;DHT22;30487;48.716;9.272;2022-12-18T01:38:39;-6.00;99.90
44767;DHT22;30487;48.716;9.272;2022-12-18T01:41:05;-6.10;99.90
44767;DHT22;30487;48.716;9.272;2022-12-18T01:43:47;-6.10;99.90
44767;DHT22;30487;48.716;9.272;2022-12-18T01:46:14;-6.20;99.90
44767;DHT22;30487;48.716;9.272;2022-12-18T01:48:40;-6.20;99.90
44767;DHT22;30487;48.716;9.272;2022-12-18T01:51:08;-6.30;99.90
44767;DHT22;30487;48.716;9.272;2022-12-18T01:53:36;-6.30;99.90
44767;DHT22;30487;48.716;9.272;2022-12-18T01:56:03;-6.30;99.90
44767;DHT22;30487;48.716;9.272;2022-12-18T01:59:07;-6.50;99.90
44767;DHT22;30487;48.716;9.272;2022-12-18T02:01:32;-6.50;99.90
44767;DHT22;30487;48.716;9.272;2022-12-18T02:04:21;-6.50;99.90
44767;DHT22;30487;48.716;9.272;2022-12-18T02:09:40;-6.50;99.90
44767;DHT22;30487;48.716;9.272;2022-12-18T02:14:45;-6.40;99.90
44767;DHT22;30487;48.716;9.272;2022-12-18T02:25:13;-6.50;99.90
44767;DHT22;30487;48.716;9.272;2022-12-18T02:27:44;-6.50;99.90
44767;DHT22;30487;48.716;9.272;2022-12-18T02:30:11;-6.60;99.90
44767;DHT22;30487;48.716;9.272;2022-12-18T02:32:41;-6.60;99.90
44767;DHT22;30487;48.716;9.272;2022-12-18T02:35:13;-6.70;99.90
44767;DHT22;30487;48.716;9.272;2022-12-18T02:37:41;-6.70;99.90
44767;DHT22;30487;48.716;9.272;2022-12-18T02:40:09;-6.70;99.90
44767;DHT22;30487;48.716;9.272;2022-12-18T02:42:36;-6.70;99.90
44767;DHT22;30487;48.716;9.272;2022-12-18T02:45:02;-6.70;99.90
44767;DHT22;30487;48.716;9.272;2022-12-18T02:47:32;-6.70;99.90
44767;DHT22;30487;48.716;9.272;2022-12-18T02:53:18;-6.70;99.90
44767;DHT22;30487;48.716;9.272;2022-12-18T02:58:34;-6.70;99.90
44767;DHT22;30487;48.716;9.272;2022-12-18T03:01:19;-6.70;99.90
44767;DHT22;30487;48.716;9.272;2022-12-18T03:03:58;-6.70;99.90
44767;DHT22;30487;48.716;9.272;2022-12-18T03:06:32;-6.70;99.90
44767;DHT22;30487;48.716;9.272;2022-12-18T03:09:02;-6.70;99.90
44767;DHT22;30487;48.716;9.272;2022-12-18T03:11:32;-6.70;99.90
44767;DHT22;30487;48.716;9.272;2022-12-18T03:14:19;-6.60;99.90
44767;DHT22;30487;48.716;9.272;2022-12-18T03:16:46;-6.60;99.90
44767;DHT22;30487;48.716;9.272;2022-12-18T03:19:18;-6.60;99.90
44767;DHT22;30487;48.716;9.272;2022-12-18T03:21:54;-6.60;99.90
44767;DHT22;30487;48.716;9.272;2022-12-18T03:24:21;-6.70;99.90
44767;DHT22;30487;48.716;9.272;2022-12-18T03:26:52;-6.70;99.90
44767;DHT22;30487;48.716;9.272;2022-12-18T03:29:25;-6.70;99.90
44767;DHT22;30487;48.716;9.272;2022-12-18T03:31:55;-6.70;99.90
44767;DHT22;30487;48.716;9.272;2022-12-18T03:34:29;-6.70;99.90
44767;DHT22;30487;48.716;9.272;2022-12-18T03:36:56;-6.70;99.90
44767;DHT22;30487;48.716;9.272;2022-12-18T03:39:22;-6.80;99.90
44767;DHT22;30487;48.716;9.272;2022-12-18T03:41:55;-6.80;99.90
44767;DHT22;30487;48.716;9.272;2022-12-18T03:44:47;-6.80;99.90
44767;DHT22;30487;48.716;9.272;2022-12-18T03:47:27;-6.90;99.90
44767;DHT22;30487;48.716;9.272;2022-12-18T03:50:03;-6.90;99.90
44767;DHT22;30487;48.716;9.272;2022-12-18T03:52:37;-7.00;99.90
44767;DHT22;30487;48.716;9.272;2022-12-18T03:55:05;-7.00;99.90
44767;DHT22;30487;48.716;9.272;2022-12-18T03:57:32;-7.10;99.90
44767;DHT22;30487;48.716;9.272;2022-12-18T04:00:07;-7.10;99.90
44767;DHT22;30487;48.716;9.272;2022-12-18T04:02:34;-7.10;99.90
44767;DHT22;30487;48.716;9.272;2022-12-18T04:05:04;-7.20;99.90
44767;DHT22;30487;48.716;9.272;2022-12-18T04:07:30;-7.20;99.90
44767;DHT22;30487;48.716;9.272;2022-12-18T04:09:56;-7.20;99.90
44767;DHT22;30487;48.716;9.272;2022-12-18T04:12:25;-7.20;99.90
44767;DHT22;30487;48.716;9.272;2022-12-18T04:14:51;-7.20;99.90
44767;DHT22;30487;48.716;9.272;2022-12-18T04:17:17;-7.20;99.90
44767;DHT22;30487;48.716;9.272;2022-12-18T04:19:43;-7.20;99.90
44767;DHT22;30487;48.716;9.272;2022-12-18T04:22:09;-7.20;99.90
44767;DHT22;30487;48.716;9.272;2022-12-18T04:24:35;-7.20;99.90
44767;DHT22;30487;48.716;9.272;2022-12-18T04:27:01;-7.20;99.90
44767;DHT22;30487;48.716;9.272;2022-12-18T04:29:27;-7.20;99.90
44767;DHT22;30487;48.716;9.272;2022-12-18T04:31:53;-7.20;99.90
44767;DHT22;30487;48.716;9.272;2022-12-18T04:34:19;-7.20;99.90
44767;DHT22;30487;48.716;9.272;2022-12-18T04:36:45;-7.30;99.90
44767;DHT22;30487;48.716;9.272;2022-12-18T04:39:11;-7.30;99.90
44767;DHT22;30487;48.716;9.272;2022-12-18T04:41:37;-7.40;99.90
44767;DHT22;30487;48.716;9.272;2022-12-18T04:44:03;-7.40;99.90
44767;DHT22;30487;48.716;9.272;2022-12-18T04:46:28;-7.50;99.90
44767;DHT22;30487;48.716;9.272;2022-12-18T04:48:54;-7.50;99.90
44767;DHT22;30487;48.716;9.272;2022-12-18T04:51:20;-7.50;99.90
44767;DHT22;30487;48.716;9.272;2022-12-18T04:53:45;-7.50;99.90
44767;DHT22;30487;48.716;9.272;2022-12-18T04:56:13;-7.50;99.90
44767;DHT22;30487;48.716;9.272;2022-12-18T04:58:41;-7.50;99.90
44767;DHT22;30487;48.716;9.272;2022-12-18T05:01:07;-7.60;99.90
44767;DHT22;30487;48.716;9.272;2022-12-18T05:03:33;-7.60;99.90
44767;DHT22;30487;48.716;9.272;2022-12-18T05:05:59;-7.60;99.90
44767;DHT22;30487;48.716;9.272;2022-12-18T05:08:25;-7.60;99.90
44767;DHT22;30487;48.716;9.272;2022-12-18T05:10:59;-7.60;99.90
44767;DHT22;30487;48.716;9.272;2022-12-18T05:13:25;-7.70;99.90
44767;DHT22;30487;48.716;9.272;2022-12-18T05:15:52;-7.70;99.90
44767;DHT22;30487;48.716;9.272;2022-12-18T05:18:17;-7.80;99.90
44767;DHT22;30487;48.716;9.272;2022-12-18T05:20:43;-7.80;99.90
44767;DHT22;30487;48.716;9.272;2022-12-18T05:23:08;-7.80;99.90
44767;DHT22;30487;48.716;9.272;2022-12-18T05:25:34;-7.80;99.90
44767;DHT22;30487;48.716;9.272;2022-12-18T05:28:00;-7.80;99.90
44767;DHT22;30487;48.716;9.272;2022-12-18T05:30:25;-7.80;99.90
44767;DHT22;30487;48.716;9.272;2022-12-18T05:32:51;-7.80;99.90
44767;DHT22;30487;48.716;9.272;2022-12-18T05:35:16;-7.80;99.90
44767;DHT22;30487;48.716;9.272;2022-12-18T05:37:42;-7.90;99.90
44767;DHT22;30487;48.716;9.272;2022-12-18T05:40:08;-7.90;99.90
44767;DHT22;30487;48.716;9.272;2022-12-18T05:42:33;-7.90;99.90
44767;DHT22;30487;48.716;9.272;2022-12-18T05:44:59;-8.00;99.90
44767;DHT22;30487;48.716;9.272;2022-12-18T05:47:24;-8.00;99.90
44767;DHT22;30487;48.716;9.272;2022-12-18T05:49:50;-8.00;99.90
44767;DHT22;30487;48.716;9.272;2022-12-18T05:52:15;-8.00;99.90
44767;DHT22;30487;48.716;9.272;2022-12-18T05:54:41;-8.00;99.90
44767;DHT22;30487;48.716;9.272;2022-12-18T05:57:06;-8.00;99.90
44767;DHT22;30487;48.716;9.272;2022-12-18T05:59:32;-8.00;99.90
44767;DHT22;30487;48.716;9.272;2022-12-18T06:01:58;-8.00;99.90
44767;DHT22;30487;48.716;9.272;2022-12-18T06:04:23;-8.00;99.90
44767;DHT22;30487;48.716;9.272;2022-12-18T06:06:49;-8.00;99.90
44767;DHT22;30487;48.716;9.272;2022-12-18T06:09:14;-7.90;99.90
44767;DHT22;30487;48.716;9.272;2022-12-18T06:11:40;-8.00;99.90
44767;DHT22;30487;48.716;9.272;2022-12-18T06:14:06;-8.00;99.90
44767;DHT22;30487;48.716;9.272;2022-12-18T06:16:32;-8.00;99.90
44767;DHT22;30487;48.716;9.272;2022-12-18T06:19:02;-8.00;99.90
44767;DHT22;30487;48.716;9.272;2022-12-18T06:21:29;-8.00;99.90
44767;DHT22;30487;48.716;9.272;2022-12-18T06:23:54;-8.10;99.90
44767;DHT22;30487;48.716;9.272;2022-12-18T06:26:20;-8.10;99.90
44767;DHT22;30487;48.716;9.272;2022-12-18T06:28:46;-8.20;99.90
44767;DHT22;30487;48.716;9.272;2022-12-18T06:31:11;-8.20;99.90
44767;DHT22;30487;48.716;9.272;2022-12-18T06:33:38;-8.20;99.90
44767;DHT22;30487;48.716;9.272;2022-12-18T06:36:10;-8.20;99.90
44767;DHT22;30487;48.716;9.272;2022-12-18T06:38:37;-8.20;99.90
44767;DHT22;30487;48.716;9.272;2022-12-18T06:41:10;-8.20;99.90
44767;DHT22;30487;48.716;9.272;2022-12-18T06:43:36;-8.30;99.90
44767;DHT22;30487;48.716;9.272;2022-12-18T06:46:03;-8.20;99.90
44767;DHT22;30487;48.716;9.272;2022-12-18T06:48:29;-8.20;99.90
44767;DHT22;30487;48.716;9.272;2022-12-18T06:50:55;-8.20;99.90
44767;DHT22;30487;48.716;9.272;2022-12-18T06:53:20;-8.10;99.90
44767;DHT22;30487;48.716;9.272;2022-12-18T06:55:46;-8.10;99.90
44767;DHT22;30487;48.716;9.272;2022-12-18T06:58:12;-8.10;99.90
44767;DHT22;30487;48.716;9.272;2022-12-18T07:00:37;-8.10;99.90
44767;DHT22;30487;48.716;9.272;2022-12-18T07:03:03;-8.20;99.90
44767;DHT22;30487;48.716;9.272;2022-12-18T07:05:28;-8.20;99.90
44767;DHT22;30487;48.716;9.272;2022-12-18T07:07:54;-8.30;99.90
44767;DHT22;30487;48.716;9.272;2022-12-18T07:10:20;-8.20;99.90
44767;DHT22;30487;48.716;9.272;2022-12-18T07:12:45;-8.10;99.90
44767;DHT22;30487;48.716;9.272;2022-12-18T07:15:11;-8.10;99.90
44767;DHT22;30487;48.716;9.272;2022-12-18T07:17:37;-8.10;99.90
44767;DHT22;30487;48.716;9.272;2022-12-18T07:20:03;-8.20;99.90
44767;DHT22;30487;48.716;9.272;2022-12-18T07:22:28;-8.30;99.90
44767;DHT22;30487;48.716;9.272;2022-12-18T07:24:54;-8.30;99.90
44767;DHT22;30487;48.716;9.272;2022-12-18T07:27:20;-8.30;99.90
44767;DHT22;30487;48.716;9.272;2022-12-18T07:29:46;-8.30;99.90
44767;DHT22;30487;48.716;9.272;2022-12-18T07:32:11;-8.30;99.90
44767;DHT22;30487;48.716;9.272;2022-12-18T07:34:37;-8.20;99.90
44767;DHT22;30487;48.716;9.272;2022-12-18T07:37:03;-8.20;99.90
44767;DHT22;30487;48.716;9.272;2022-12-18T07:39:28;-8.10;99.90
44767;DHT22;30487;48.716;9.272;2022-12-18T07:41:54;-8.00;99.90
44767;DHT22;30487;48.716;9.272;2022-12-18T07:44:38;-8.00;99.90
44767;DHT22;30487;48.716;9.272;2022-12-18T07:47:04;-7.90;99.90
44767;DHT22;30487;48.716;9.272;2022-12-18T07:49:30;-7.80;99.90
44767;DHT22;30487;48.716;9.272;2022-12-18T07:51:56;-7.80;99.90
44767;DHT22;30487;48.716;9.272;2022-12-18T07:54:23;-7.70;99.90
44767;DHT22;30487;48.716;9.272;2022-12-18T07:56:49;-7.60;99.90
44767;DHT22;30487;48.716;9.272;2022-12-18T07:59:14;-7.70;99.90
44767;DHT22;30487;48.716;9.272;2022-12-18T08:01:40;-7.70;99.90
44767;DHT22;30487;48.716;9.272;2022-12-18T08:04:05;-7.60;99.90
44767;DHT22;30487;48.716;9.272;2022-12-18T08:06:31;-7.50;99.90
44767;DHT22;30487;48.716;9.272;2022-12-18T08:08:57;-7.50;99.90
44767;DHT22;30487;48.716;9.272;2022-12-18T08:11:24;-7.40;99.90
44767;DHT22;30487;48.716;9.272;2022-12-18T08:13:51;-7.30;99.90
44767;DHT22;30487;48.716;9.272;2022-12-18T08:16:17;-7.10;99.90
44767;DHT22;30487;48.716;9.272;2022-12-18T08:18:43;-6.80;99.90
44767;DHT22;30487;48.716;9.272;2022-12-18T08:21:09;-6.50;99.90
44767;DHT22;30487;48.716;9.272;2022-12-18T08:23:35;-6.10;99.90
44767;DHT22;30487;48.716;9.272;2022-12-18T08:26:01;-6.00;99.90
44767;DHT22;30487;48.716;9.272;2022-12-18T08:28:26;-5.90;99.90
44767;DHT22;30487;48.716;9.272;2022-12-18T08:30:52;-6.00;99.90
44767;DHT22;30487;48.716;9.272;2022-12-18T08:33:18;-6.10;99.90
44767;DHT22;30487;48.716;9.272;2022-12-18T08:35:43;-6.20;99.90
44767;DHT22;30487;48.716;9.272;2022-12-18T08:38:09;-6.30;99.90
44767;DHT22;30487;48.716;9.272;2022-12-18T08:40:34;-6.30;99.90
44767;DHT22;30487;48.716;9.272;2022-12-18T08:43:00;-6.40;99.90
44767;DHT22;30487;48.716;9.272;2022-12-18T08:45:44;-6.40;99.90
44767;DHT22;30487;48.716;9.272;2022-12-18T08:48:09;-6.40;99.90
44767;DHT22;30487;48.716;9.272;2022-12-18T08:50:35;-6.40;99.90
44767;DHT22;30487;48.716;9.272;2022-12-18T08:53:01;-6.40;99.90
44767;DHT22;30487;48.716;9.272;2022-12-18T08:55:26;-6.40;99.90
44767;DHT22;30487;48.716;9.272;2022-12-18T08:57:52;-6.30;99.90
44767;DHT22;30487;48.716;9.272;2022-12-18T09:00:17;-6.30;99.90
44767;DHT22;30487;48.716;9.272;2022-12-18T09:02:43;-6.30;99.90
44767;DHT22;30487;48.716;9.272;2022-12-18T09:05:09;-6.20;99.90
44767;DHT22;30487;48.716;9.272;2022-12-18T09:07:35;-6.10;99.90
44767;DHT22;30487;48.716;9.272;2022-12-18T09:10:00;-6.00;99.90
44767;DHT22;30487;48.716;9.272;2022-12-18T09:12:26;-5.90;99.90
44767;DHT22;30487;48.716;9.272;2022-12-18T09:14:51;-5.90;99.90
44767;DHT22;30487;48.716;9.272;2022-12-18T09:17:17;-5.80;99.90
44767;DHT22;30487;48.716;9.272;2022-12-18T09:19:43;-5.70;99.90
44767;DHT22;30487;48.716;9.272;2022-12-18T09:22:10;-5.70;99.90
44767;DHT22;30487;48.716;9.272;2022-12-18T09:24:35;-5.70;99.90
44767;DHT22;30487;48.716;9.272;2022-12-18T09:27:01;-5.60;99.90
44767;DHT22;30487;48.716;9.272;2022-12-18T09:29:26;-5.60;99.90
44767;DHT22;30487;48.716;9.272;2022-12-18T09:31:52;-5.60;99.90
44767;DHT22;30487;48.716;9.272;2022-12-18T09:34:18;-5.60;99.90
44767;DHT22;30487;48.716;9.272;2022-12-18T09:36:46;-5.50;99.90
44767;DHT22;30487;48.716;9.272;2022-12-18T09:39:12;-5.30;99.90
44767;DHT22;30487;48.716;9.272;2022-12-18T09:41:55;-5.20;99.90
44767;DHT22;30487;48.716;9.272;2022-12-18T09:44:26;-5.00;99.90
44767;DHT22;30487;48.716;9.272;2022-12-18T09:47:05;-4.80;99.90
44767;DHT22;30487;48.716;9.272;2022-12-18T09:49:36;-4.60;99.90
44767;DHT22;30487;48.716;9.272;2022-12-18T09:52:14;-4.40;99.90
44767;DHT22;30487;48.716;9.272;2022-12-18T09:54:42;-4.30;99.90
44767;DHT22;30487;48.716;9.272;2022-12-18T09:57:29;-4.10;99.90
44767;DHT22;30487;48.716;9.272;2022-12-18T10:00:08;-4.00;99.90
44767;DHT22;30487;48.716;9.272;2022-12-18T10:02:35;-3.80;99.90
44767;DHT22;30487;48.716;9.272;2022-12-18T10:08:13;-3.40;99.90
44767;DHT22;30487;48.716;9.272;2022-12-18T10:11:01;-3.30;99.90
44767;DHT22;30487;48.716;9.272;2022-12-18T10:16:25;-3.20;99.90
44767;DHT22;30487;48.716;9.272;2022-12-18T10:19:34;-3.10;99.90
44767;DHT22;30487;48.716;9.272;2022-12-18T10:27:42;-2.60;99.90
44767;DHT22;30487;48.716;9.272;2022-12-18T10:30:20;-2.40;99.90
44767;DHT22;30487;48.716;9.272;2022-12-18T10:32:46;-2.20;99.90
44767;DHT22;30487;48.716;9.272;2022-12-18T10:35:21;-2.00;99.90
44767;DHT22;30487;48.716;9.272;2022-12-18T10:40:55;-1.30;99.90
44767;DHT22;30487;48.716;9.272;2022-12-18T10:43:24;-0.80;99.90
44767;DHT22;30487;48.716;9.272;2022-12-18T10:46:00;-0.40;99.90
44767;DHT22;30487;48.716;9.272;2022-12-18T10:48:26;0.20;99.90
44767;DHT22;30487;48.716;9.272;2022-12-18T10:50:53;0.50;99.90
44767;DHT22;30487;48.716;9.272;2022-12-18T10:53:22;0.90;99.90
44767;DHT22;30487;48.716;9.272;2022-12-18T10:55:48;1.10;99.80
44767;DHT22;30487;48.716;9.272;2022-12-18T10:58:34;1.60;99.30
44767;DHT22;30487;48.716;9.272;2022-12-18T11:03:32;2.10;98.00
44767;DHT22;30487;48.716;9.272;2022-12-18T11:06:25;2.40;97.90
44767;DHT22;30487;48.716;9.272;2022-12-18T11:09:00;2.70;97.40
44767;DHT22;30487;48.716;9.272;2022-12-18T11:11:26;3.10;96.60
44767;DHT22;30487;48.716;9.272;2022-12-18T11:14:03;3.40;96.10
44767;DHT22;30487;48.716;9.272;2022-12-18T11:16:33;3.70;96.20
44767;DHT22;30487;48.716;9.272;2022-12-18T11:19:20;4.10;96.50
44767;DHT22;30487;48.716;9.272;2022-12-18T11:21:47;4.60;95.50
44767;DHT22;30487;48.716;9.272;2022-12-18T11:24:32;4.80;94.60
44767;DHT22;30487;48.716;9.272;2022-12-18T11:27:05;5.30;93.30
44767;DHT22;30487;48.716;9.272;2022-12-18T11:29:39;5.60;92.60
44767;DHT22;30487;48.716;9.272;2022-12-18T11:32:34;6.10;91.90
44767;DHT22;30487;48.716;9.272;2022-12-18T11:35:15;6.80;90.30
44767;DHT22;30487;48.716;9.272;2022-12-18T11:37:48;7.50;87.00
44767;DHT22;30487;48.716;9.272;2022-12-18T11:40:35;7.80;84.30
44767;DHT22;30487;48.716;9.272;2022-12-18T11:43:10;7.90;82.30
44767;DHT22;30487;48.716;9.272;2022-12-18T11:45:58;8.10;80.20
44767;DHT22;30487;48.716;9.272;2022-12-18T11:48:27;8.00;79.20
44767;DHT22;30487;48.716;9.272;2022-12-18T11:50:57;8.10;78.50
44767;DHT22;30487;48.716;9.272;2022-12-18T11:53:25;8.20;80.80
44767;DHT22;30487;48.716;9.272;2022-12-18T11:58:42;8.70;76.90
44767;DHT22;30487;48.716;9.272;2022-12-18T12:10:16;8.80;73.40
44767;DHT22;30487;48.716;9.272;2022-12-18T12:18:27;8.20;73.80
44767;DHT22;30487;48.716;9.272;2022-12-18T12:24:10;8.10;73.80
44767;DHT22;30487;48.716;9.272;2022-12-18T12:30:05;7.60;73.60
44767;DHT22;30487;48.716;9.272;2022-12-18T12:32:55;7.40;74.60
44767;DHT22;30487;48.716;9.272;2022-12-18T12:38:12;6.80;74.90
44767;DHT22;30487;48.716;9.272;2022-12-18T12:40:49;6.20;76.00
44767;DHT22;30487;48.716;9.272;2022-12-18T12:43:33;6.00;76.70
44767;DHT22;30487;48.716;9.272;2022-12-18T12:46:00;5.80;77.40
44767;DHT22;30487;48.716;9.272;2022-12-18T12:48:32;5.40;78.50
44767;DHT22;30487;48.716;9.272;2022-12-18T12:51:03;5.10;79.10
44767;DHT22;30487;48.716;9.272;2022-12-18T12:53:34;5.00;79.70
44767;DHT22;30487;48.716;9.272;2022-12-18T12:56:01;5.00;80.70
44767;DHT22;30487;48.716;9.272;2022-12-18T12:58:33;4.90;83.20
44767;DHT22;30487;48.716;9.272;2022-12-18T13:01:16;5.00;85.50
44767;DHT22;30487;48.716;9.272;2022-12-18T13:04:08;5.00;85.40
44767;DHT22;30487;48.716;9.272;2022-12-18T13:06:53;4.90;85.00
44767;DHT22;30487;48.716;9.272;2022-12-18T13:09:21;5.00;83.40
44767;DHT22;30487;48.716;9.272;2022-12-18T13:11:47;4.90;84.20
44767;DHT22;30487;48.716;9.272;2022-12-18T13:14:37;4.90;85.70
44767;DHT22;30487;48.716;9.272;2022-12-18T13:20:06;4.60;85.30
44767;DHT22;30487;48.716;9.272;2022-12-18T13:22:47;4.60;85.30
44767;DHT22;30487;48.716;9.272;2022-12-18T13:25:32;4.60;85.30
44767;DHT22;30487;48.716;9.272;2022-12-18T13:28:11;4.60;85.10
44767;DHT22;30487;48.716;9.272;2022-12-18T13:30:42;4.40;87.50
44767;DHT22;30487;48.716;9.272;2022-12-18T13:41:03;4.10;86.30
44767;DHT22;30487;48.716;9.272;2022-12-18T13:43:41;4.00;86.40
44767;DHT22;30487;48.716;9.272;2022-12-18T13:49:00;3.60;86.80
44767;DHT22;30487;48.716;9.272;2022-12-18T13:51:28;3.30;87.40
44767;DHT22;30487;48.716;9.272;2022-12-18T13:53:58;3.30;88.00
44767;DHT22;30487;48.716;9.272;2022-12-18T13:56:30;3.20;88.20
44767;DHT22;30487;48.716;9.272;2022-12-18T14:01:48;3.30;88.70
44767;DHT22;30487;48.716;9.272;2022-12-18T14:06:47;3.10;88.90
44767;DHT22;30487;48.716;9.272;2022-12-18T14:09:24;3.10;88.50
44767;DHT22;30487;48.716;9.272;2022-12-18T14:11:51;3.10;88.70
44767;DHT22;30487;48.716;9.272;2022-12-18T14:14:18;2.80;89.00
44767;DHT22;30487;48.716;9.272;2022-12-18T14:16:45;2.80;89.70
44767;DHT22;30487;48.716;9.272;2022-12-18T14:19:15;2.50;90.00
44767;DHT22;30487;48.716;9.272;2022-12-18T14:21:47;2.40;90.40
44767;DHT22;30487;48.716;9.272;2022-12-18T14:24:17;2.30;90.60
44767;DHT22;30487;48.716;9.272;2022-12-18T14:26:44;2.10;90.90
44767;DHT22;30487;48.716;9.272;2022-12-18T14:29:27;2.10;91.10
44767;DHT22;30487;48.716;9.272;2022-12-18T14:32:40;2.00;91.30
44767;DHT22;30487;48.716;9.272;2022-12-18T14:35:13;1.80;91.80
44767;DHT22;30487;48.716;9.272;2022-12-18T14:37:38;1.60;92.10
44767;DHT22;30487;48.716;9.272;2022-12-18T14:40:04;1.50;92.40
44767;DHT22;30487;48.716;9.272;2022-12-18T14:42:31;1.30;92.60
44767;DHT22;30487;48.716;9.272;2022-12-18T14:45:34;1.10;93.20
44767;DHT22;30487;48.716;9.272;2022-12-18T14:48:00;1.00;93.70
44767;DHT22;30487;48.716;9.272;2022-12-18T14:50:33;0.90;94.10
44767;DHT22;30487;48.716;9.272;2022-12-18T14:52:58;0.80;94.30
44767;DHT22;30487;48.716;9.272;2022-12-18T14:55:24;0.70;94.90
44767;DHT22;30487;48.716;9.272;2022-12-18T14:57:52;0.60;95.40
44767;DHT22;30487;48.716;9.272;2022-12-18T15:00:21;0.60;95.80
44767;DHT22;30487;48.716;9.272;2022-12-18T15:02:55;0.50;96.10
44767;DHT22;30487;48.716;9.272;2022-12-18T15:05:27;0.40;96.60
44767;DHT22;30487;48.716;9.272;2022-12-18T15:07:54;0.30;96.90
44767;DHT22;30487;48.716;9.272;2022-12-18T15:10:26;0.30;97.20
44767;DHT22;30487;48.716;9.272;2022-12-18T15:20:46;-0.10;99.20
44767;DHT22;30487;48.716;9.272;2022-12-18T15:25:58;-0.20;99.90
44767;DHT22;30487;48.716;9.272;2022-12-18T15:28:27;-0.30;99.90
44767;DHT22;30487;48.716;9.272;2022-12-18T15:31:02;-0.40;99.90
44767;DHT22;30487;48.716;9.272;2022-12-18T15:33:34;-0.40;99.90
44767;DHT22;30487;48.716;9.272;2022-12-18T15:36:02;-0.40;99.90
44767;DHT22;30487;48.716;9.272;2022-12-18T15:38:28;-0.50;99.90
44767;DHT22;30487;48.716;9.272;2022-12-18T15:40:54;-0.50;99.90
44767;DHT22;30487;48.716;9.272;2022-12-18T15:43:22;-0.60;99.90
44767;DHT22;30487;48.716;9.272;2022-12-18T15:46:37;-0.70;99.90
44767;DHT22;30487;48.716;9.272;2022-12-18T15:48:57;-0.80;99.90
44767;DHT22;30487;48.716;9.272;2022-12-18T15:51:34;-0.90;99.90
44767;DHT22;30487;48.716;9.272;2022-12-18T15:54:03;-0.90;99.90
44767;DHT22;30487;48.716;9.272;2022-12-18T15:56:29;-1.00;99.90
44767;DHT22;30487;48.716;9.272;2022-12-18T15:59:17;-1.00;99.90
44767;DHT22;30487;48.716;9.272;2022-12-18T16:01:48;-1.00;99.90
44767;DHT22;30487;48.716;9.272;2022-12-18T16:04:15;-1.10;99.90
44767;DHT22;30487;48.716;9.272;2022-12-18T16:06:41;-1.20;99.90
44767;DHT22;30487;48.716;9.272;2022-12-18T16:09:08;-1.30;99.90
44767;DHT22;30487;48.716;9.272;2022-12-18T16:11:36;-1.30;99.90
44767;DHT22;30487;48.716;9.272;2022-12-18T16:14:25;-1.30;99.90
44767;DHT22;30487;48.716;9.272;2022-12-18T16:17:03;-1.30;99.90
44767;DHT22;30487;48.716;9.272;2022-12-18T16:19:29;-1.30;99.90
44767;DHT22;30487;48.716;9.272;2022-12-18T16:21:56;-1.30;99.90
44767;DHT22;30487;48.716;9.272;2022-12-18T16:24:30;-1.40;99.90
44767;DHT22;30487;48.716;9.272;2022-12-18T16:26:57;-1.40;99.90
44767;DHT22;30487;48.716;9.272;2022-12-18T16:29:24;-1.40;99.90
44767;DHT22;30487;48.716;9.272;2022-12-18T16:31:53;-1.40;99.90
44767;DHT22;30487;48.716;9.272;2022-12-18T16:34:22;-1.40;99.90
44767;DHT22;30487;48.716;9.272;2022-12-18T16:36:51;-1.50;99.90
44767;DHT22;30487;48.716;9.272;2022-12-18T16:39:17;-1.50;99.90
44767;DHT22;30487;48.716;9.272;2022-12-18T16:41:43;-1.50;99.90
44767;DHT22;30487;48.716;9.272;2022-12-18T16:44:12;-1.50;99.90
44767;DHT22;30487;48.716;9.272;2022-12-18T16:46:38;-1.50;99.90
44767;DHT22;30487;48.716;9.272;2022-12-18T16:49:04;-1.50;99.90
44767;DHT22;30487;48.716;9.272;2022-12-18T16:51:30;-1.50;99.90
44767;DHT22;30487;48.716;9.272;2022-12-18T16:53:56;-1.50;99.90
44767;DHT22;30487;48.716;9.272;2022-12-18T16:56:22;-1.50;99.90
44767;DHT22;30487;48.716;9.272;2022-12-18T16:58:52;-1.60;99.90
44767;DHT22;30487;48.716;9.272;2022-12-18T17:01:19;-1.60;99.90
44767;DHT22;30487;48.716;9.272;2022-12-18T17:03:51;-1.60;99.90
44767;DHT22;30487;48.716;9.272;2022-12-18T17:06:17;-1.60;99.90
44767;DHT22;30487;48.716;9.272;2022-12-18T17:08:42;-1.60;99.90
44767;DHT22;30487;48.716;9.272;2022-12-18T17:11:08;-1.70;99.90
44767;DHT22;30487;48.716;9.272;2022-12-18T17:13:34;-1.70;99.90
44767;DHT22;30487;48.716;9.272;2022-12-18T17:16:07;-1.70;99.90
44767;DHT22;30487;48.716;9.272;2022-12-18T17:18:33;-1.70;99.90
44767;DHT22;30487;48.716;9.272;2022-12-18T17:21:04;-1.70;99.90
44767;DHT22;30487;48.716;9.272;2022-12-18T17:23:31;-1.70;99.90
44767;DHT22;30487;48.716;9.272;2022-12-18T17:25:57;-1.70;99.90